createdAt,value
2023-04-18T00:01:06.508Z,11.63
2023-04-18T00:04:09.824Z,11.51
2023-04-18T00:07:15.284Z,11.44
2023-04-18T00:10:17.637Z,11.66
2023-04-18T00:13:20.078Z,11.50
2023-04-18T00:16:22.617Z,11.54
2023-04-18T00:19:25.093Z,11.67
2023-04-18T00:22:28.305Z,11.82
2023-04-18T00:25:30.679Z,11.84
2023-04-18T00:28:33.060Z,11.69
2023-04-18T00:31:35.427Z,11.81
2023-04-18T00:34:37.866Z,11.74
2023-04-18T00:37:40.571Z,11.85
2023-04-18T00:40:44.057Z,11.77
2023-04-18T00:43:46.466Z,11.84
2023-04-18T00:46:48.894Z,11.84
2023-04-18T00:49:51.721Z,11.89
2023-04-18T00:52:56.810Z,11.78
2023-04-18T00:55:59.416Z,11.92
2023-04-18T00:59:01.957Z,11.95
2023-04-18T01:02:05.198Z,11.79
2023-04-18T01:05:09.950Z,11.95
2023-04-18T01:08:14.227Z,11.84
2023-04-18T01:11:16.651Z,11.83
2023-04-18T01:14:20.529Z,11.81
2023-04-18T01:17:23.401Z,11.81
2023-04-18T01:20:27.261Z,11.91
2023-04-18T01:23:30.124Z,11.94
2023-04-18T01:26:32.492Z,11.89
2023-04-18T01:29:35.533Z,11.76
2023-04-18T01:32:39.242Z,11.50
2023-04-18T01:35:41.745Z,11.20
2023-04-18T01:38:44.180Z,11.12
2023-04-18T01:41:46.683Z,11.13
2023-04-18T01:44:49.194Z,11.20
2023-04-18T01:47:51.639Z,11.15
2023-04-18T01:50:54.050Z,11.20
2023-04-18T01:53:56.457Z,11.21
2023-04-18T01:57:00.322Z,11.42
2023-04-18T02:00:05.063Z,11.42
2023-04-18T02:03:16.856Z,11.29
2023-04-18T02:06:19.378Z,11.42
2023-04-18T02:09:23.965Z,11.42
2023-04-18T02:12:26.558Z,11.45
2023-04-18T02:15:29.068Z,11.46
2023-04-18T02:18:34.567Z,11.44
2023-04-18T02:21:37.045Z,11.48
2023-04-18T02:24:39.386Z,11.48
2023-04-18T02:27:41.864Z,11.54
2023-04-18T02:30:44.331Z,11.53
2023-04-18T02:33:49.740Z,11.48
2023-04-18T02:36:52.142Z,11.41
2023-04-18T02:39:54.727Z,11.53
2023-04-18T02:42:58.158Z,11.60
2023-04-18T02:46:00.643Z,11.40
2023-04-18T02:49:03.444Z,11.44
2023-04-18T02:52:06.658Z,11.31
2023-04-18T02:55:09.407Z,11.51
2023-04-18T02:58:15.832Z,11.49
2023-04-18T03:01:35.071Z,11.29
2023-04-18T03:04:49.137Z,11.23
2023-04-18T03:07:51.866Z,11.15
2023-04-18T03:10:56.386Z,11.01
2023-04-18T03:14:00.665Z,11.04
2023-04-18T03:17:10.468Z,10.93
2023-04-18T03:20:17.627Z,10.81
2023-04-18T03:23:20.066Z,10.73
2023-04-18T03:26:24.212Z,10.56
2023-04-18T03:29:27.770Z,10.72
2023-04-18T03:32:33.723Z,10.48
2023-04-18T03:35:36.288Z,10.32
2023-04-18T03:38:40.575Z,10.44
2023-04-18T03:41:43.857Z,10.48
2023-04-18T03:44:46.302Z,10.51
2023-04-18T03:47:50.953Z,10.66
2023-04-18T03:50:54.292Z,10.50
2023-04-18T03:53:56.708Z,10.69
2023-04-18T03:56:59.609Z,10.62
2023-04-18T04:00:05.025Z,10.52
2023-04-18T04:03:18.324Z,10.60
2023-04-18T04:06:22.505Z,10.63
2023-04-18T04:09:24.975Z,10.45
2023-04-18T04:12:27.583Z,10.42
2023-04-18T04:15:30.108Z,10.51
2023-04-18T04:18:38.614Z,10.47
2023-04-18T04:21:41.195Z,10.59
2023-04-18T04:24:47.622Z,10.61
2023-04-18T04:27:54.765Z,10.54
2023-04-18T04:30:59.432Z,10.47
2023-04-18T04:34:03.367Z,10.78
2023-04-18T04:37:05.960Z,10.87
2023-04-18T04:40:15.682Z,10.88
2023-04-18T04:43:22.748Z,11.10
2023-04-18T04:46:25.380Z,11.43
2023-04-18T04:49:28.634Z,11.55
2023-04-18T04:52:32.754Z,11.46
2023-04-18T04:55:35.374Z,11.35
2023-04-18T04:58:40.297Z,11.36
2023-04-18T05:01:47.032Z,11.35
2023-04-18T05:04:50.510Z,11.26
2023-04-18T05:07:53.293Z,11.37
2023-04-18T05:10:55.759Z,11.32
2023-04-18T05:13:58.423Z,11.30
2023-04-18T05:17:00.994Z,11.16
2023-04-18T05:20:04.297Z,11.21
2023-04-18T05:23:06.746Z,11.19
2023-04-18T05:26:09.286Z,11.25
2023-04-18T05:29:11.797Z,11.44
2023-04-18T05:32:15.123Z,11.60
2023-04-18T05:35:17.672Z,11.64
2023-04-18T05:38:20.652Z,11.71
2023-04-18T05:41:23.119Z,11.81
2023-04-18T05:44:25.746Z,11.93
2023-04-18T05:47:30.309Z,11.95
2023-04-18T05:50:32.832Z,12.01
2023-04-18T05:53:35.350Z,12.33
2023-04-18T05:56:38.147Z,12.66
2023-04-18T05:59:40.567Z,12.64
2023-04-18T06:02:43.505Z,12.74
2023-04-18T06:05:46.226Z,12.69
2023-04-18T06:08:48.760Z,12.92
2023-04-18T06:11:51.153Z,13.02
2023-04-18T06:14:53.646Z,12.98
2023-04-18T06:17:56.123Z,13.09
2023-04-18T06:20:58.538Z,13.20
2023-04-18T06:24:01.659Z,13.32
2023-04-18T06:27:05.517Z,13.74
2023-04-18T06:30:08.613Z,14.10
2023-04-18T06:33:11.417Z,14.20
2023-04-18T06:36:13.932Z,14.89
2023-04-18T06:39:16.482Z,15.34
2023-04-18T06:42:21.587Z,15.74
2023-04-18T06:45:24.730Z,15.57
2023-04-18T06:48:27.063Z,15.61
2023-04-18T06:51:29.570Z,15.56
2023-04-18T06:54:31.962Z,15.42
2023-04-18T06:57:34.590Z,15.07
2023-04-18T07:00:36.941Z,14.65
2023-04-18T07:03:39.501Z,14.65
2023-04-18T07:06:42.891Z,14.99
2023-04-18T07:09:45.325Z,15.23
2023-04-18T07:12:47.999Z,15.21
2023-04-18T07:15:50.726Z,15.45
2023-04-18T07:18:53.193Z,15.41
2023-04-18T07:21:56.033Z,15.66
2023-04-18T07:24:58.569Z,16.30
2023-04-18T07:28:00.969Z,16.49
2023-04-18T07:31:04.592Z,17.03
2023-04-18T07:34:07.278Z,16.65
2023-04-18T07:37:09.820Z,16.31
2023-04-18T07:40:12.774Z,15.74
2023-04-18T07:43:15.209Z,15.75
2023-04-18T07:46:18.054Z,15.77
2023-04-18T07:49:20.683Z,15.63
2023-04-18T07:52:23.362Z,15.55
2023-04-18T07:55:25.804Z,15.31
2023-04-18T07:58:28.565Z,15.35
2023-04-18T08:01:31.664Z,15.42
2023-04-18T08:04:34.305Z,15.56
2023-04-18T08:07:37.092Z,16.19
2023-04-18T08:10:39.685Z,16.33
2023-04-18T08:13:42.094Z,16.26
2023-04-18T08:16:44.609Z,16.21
2023-04-18T08:19:47.051Z,16.24
2023-04-18T08:23:04.861Z,16.22
2023-04-18T08:26:09.037Z,16.31
2023-04-18T08:29:12.469Z,16.48
2023-04-18T08:32:15.110Z,16.54
2023-04-18T08:35:17.548Z,16.38
2023-04-18T08:38:19.997Z,16.63
2023-04-18T08:41:23.640Z,16.60
2023-04-18T08:44:29.506Z,16.52
2023-04-18T08:47:32.019Z,16.89
2023-04-18T08:50:37.487Z,16.44
2023-04-18T08:53:40.136Z,16.78
2023-04-18T08:56:42.745Z,17.27
2023-04-18T08:59:47.191Z,17.91
2023-04-18T09:02:56.536Z,18.15
2023-04-18T09:06:18.996Z,18.80
2023-04-18T09:09:27.355Z,18.93
2023-04-18T09:12:30.112Z,18.68
2023-04-18T09:15:32.600Z,18.48
2023-04-18T09:18:35.337Z,18.11
2023-04-18T09:21:44.468Z,18.21
2023-04-18T09:24:53.295Z,18.37
2023-04-18T09:28:01.878Z,18.36
2023-04-18T09:31:12.992Z,18.71
2023-04-18T09:34:25.044Z,20.20
2023-04-18T09:37:29.149Z,22.89
2023-04-18T09:40:32.795Z,25.50
2023-04-18T09:43:35.186Z,26.95
2023-04-18T09:46:37.843Z,27.86
2023-04-18T09:49:40.678Z,27.58
2023-04-18T09:52:44.584Z,26.93
2023-04-18T09:55:54.798Z,25.43
2023-04-18T09:59:09.327Z,23.88
2023-04-18T10:02:16.457Z,23.22
2023-04-18T10:05:21.522Z,24.87
2023-04-18T10:08:24.400Z,26.06
2023-04-18T10:11:27.109Z,25.79
2023-04-18T10:14:32.984Z,28.24
2023-04-18T10:18:04.459Z,28.20
2023-04-18T10:21:09.137Z,26.07
2023-04-18T10:24:53.150Z,26.62
2023-04-18T10:27:57.932Z,27.84
2023-04-18T10:31:05.660Z,27.69
2023-04-18T10:34:08.232Z,26.92
2023-04-18T10:37:12.975Z,24.90
2023-04-18T10:40:15.732Z,22.99
2023-04-18T10:43:18.145Z,22.05
2023-04-18T10:46:31.103Z,21.85
2023-04-18T10:49:53.850Z,22.23
2023-04-18T10:52:56.236Z,22.71
2023-04-18T10:55:59.262Z,22.50
2023-04-18T10:59:12.786Z,22.40
2023-04-18T11:02:30.293Z,21.95
2023-04-18T11:05:32.876Z,21.13
2023-04-18T11:08:35.229Z,21.23
2023-04-18T11:11:37.822Z,21.21
2023-04-18T11:14:41.098Z,21.69
2023-04-18T11:17:44.326Z,23.23
2023-04-18T11:20:50.083Z,23.90
2023-04-18T11:23:54.399Z,24.07
2023-04-18T11:26:57.061Z,24.25
2023-04-18T11:29:59.453Z,23.35
2023-04-18T11:33:07.337Z,22.59
2023-04-18T11:36:10.164Z,22.07
2023-04-18T11:39:12.787Z,21.63
2023-04-18T11:42:15.293Z,20.96
2023-04-18T11:45:17.792Z,20.42
2023-04-18T11:48:20.436Z,20.00
2023-04-18T11:51:34.311Z,20.10
2023-04-18T11:54:37.553Z,19.97
2023-04-18T11:57:40.970Z,20.11
2023-04-18T12:00:43.523Z,20.00
2023-04-18T12:04:07.763Z,21.22
2023-04-18T12:07:10.621Z,21.94
2023-04-18T12:10:33.642Z,22.34
2023-04-18T12:13:36.135Z,23.62
2023-04-18T12:16:38.561Z,24.10
2023-04-18T12:19:46.520Z,24.81
2023-04-18T12:22:50.933Z,24.73
2023-04-18T12:26:02.588Z,24.82
2023-04-18T12:29:05.248Z,24.37
2023-04-18T12:32:07.806Z,24.43
2023-04-18T12:35:10.347Z,25.35
2023-04-18T12:38:12.766Z,25.95
2023-04-18T12:41:15.098Z,26.37
2023-04-18T12:44:17.617Z,26.28
2023-04-18T12:47:20.174Z,25.46
2023-04-18T12:50:26.751Z,25.35
2023-04-18T12:53:29.202Z,25.82
2023-04-18T12:56:31.787Z,26.02
2023-04-18T12:59:34.740Z,26.04
2023-04-18T13:02:39.083Z,27.19
2023-04-18T13:05:41.931Z,27.73
2023-04-18T13:08:45.275Z,26.93
2023-04-18T13:11:49.520Z,27.10
2023-04-18T13:14:52.266Z,25.79
2023-04-18T13:17:56.211Z,25.91
2023-04-18T13:20:58.579Z,25.90
2023-04-18T13:24:01.129Z,24.46
2023-04-18T13:27:10.252Z,24.99
2023-04-18T13:30:13.154Z,24.14
2023-04-18T13:33:17.034Z,23.57
2023-04-18T13:36:19.460Z,24.05
2023-04-18T13:39:24.346Z,22.63
2023-04-18T13:42:26.760Z,21.84
2023-04-18T13:45:29.199Z,21.53
2023-04-18T13:48:31.577Z,21.01
2023-04-18T13:51:34.233Z,21.87
2023-04-18T13:54:37.706Z,21.83
2023-04-18T13:57:41.160Z,20.87
2023-04-18T14:00:43.754Z,20.68
2023-04-18T14:03:47.570Z,21.06
2023-04-18T14:06:50.948Z,21.94
2023-04-18T14:09:54.022Z,21.96
2023-04-18T14:12:57.427Z,20.65
2023-04-18T14:16:00.372Z,20.03
2023-04-18T14:19:02.882Z,19.44
2023-04-18T14:22:05.353Z,18.80
2023-04-18T14:25:10.784Z,18.57
2023-04-18T14:28:13.217Z,18.25
2023-04-18T14:31:16.349Z,18.03
2023-04-18T14:34:18.776Z,17.70
2023-04-18T14:37:22.316Z,17.54
2023-04-18T14:40:24.879Z,17.47
2023-04-18T14:43:27.724Z,17.56
2023-04-18T14:46:30.715Z,17.46
2023-04-18T14:49:33.928Z,17.20
2023-04-18T14:52:36.398Z,17.27
2023-04-18T14:55:38.913Z,17.31
2023-04-18T14:58:41.364Z,17.23
2023-04-18T15:01:43.856Z,17.16
2023-04-18T15:04:46.574Z,17.17
2023-04-18T15:07:51.844Z,17.04
2023-04-18T15:10:54.370Z,16.92
2023-04-18T15:13:57.022Z,16.85
2023-04-18T15:16:59.526Z,16.54
2023-04-18T15:20:02.053Z,16.68
2023-04-18T15:23:04.674Z,16.49
2023-04-18T15:26:07.106Z,16.62
2023-04-18T15:29:09.627Z,16.41
2023-04-18T15:32:12.767Z,16.25
2023-04-18T15:35:15.241Z,16.50
2023-04-18T15:38:17.649Z,16.26
2023-04-18T15:41:20.208Z,16.47
2023-04-18T15:44:22.898Z,16.12
2023-04-18T15:47:25.690Z,16.28
2023-04-18T15:50:28.170Z,16.22
2023-04-18T15:53:30.532Z,16.19
2023-04-18T15:56:33.873Z,16.36
2023-04-18T15:59:36.540Z,16.26
2023-04-18T16:02:38.979Z,16.44
2023-04-18T16:05:41.504Z,16.31
2023-04-18T16:08:43.870Z,16.13
2023-04-18T16:11:46.373Z,15.94
2023-04-18T16:14:48.707Z,16.15
2023-04-18T16:17:51.157Z,16.00
2023-04-18T16:20:53.669Z,16.07
2023-04-18T16:23:56.164Z,16.03
2023-04-18T16:26:58.574Z,15.93
2023-04-18T16:30:01.178Z,16.10
2023-04-18T16:33:03.972Z,15.99
2023-04-18T16:36:07.012Z,15.91
2023-04-18T16:39:09.910Z,15.85
2023-04-18T16:42:14.875Z,15.81
2023-04-18T16:45:18.137Z,15.58
2023-04-18T16:48:20.595Z,15.82
2023-04-18T16:51:23.242Z,15.72
2023-04-18T16:54:25.594Z,15.67
2023-04-18T16:57:28.166Z,15.37
2023-04-18T17:00:30.815Z,15.25
2023-04-18T17:03:33.362Z,15.31
2023-04-18T17:06:35.926Z,15.20
2023-04-18T17:09:38.564Z,15.17
2023-04-18T17:12:41.453Z,15.19
2023-04-18T17:15:43.898Z,15.06
2023-04-18T17:18:46.640Z,14.97
2023-04-18T17:21:50.940Z,14.81
2023-04-18T17:24:54.406Z,14.68
2023-04-18T17:27:56.884Z,14.63
2023-04-18T17:31:01.402Z,14.63
2023-04-18T17:34:04.248Z,14.68
2023-04-18T17:37:06.821Z,14.53
2023-04-18T17:40:11.568Z,14.53
2023-04-18T17:43:14.067Z,14.41
2023-04-18T17:46:16.696Z,14.50
2023-04-18T17:49:19.407Z,14.54
2023-04-18T17:52:21.934Z,14.58
2023-04-18T17:55:26.213Z,14.38
2023-04-18T17:58:28.575Z,14.55
2023-04-18T18:01:31.727Z,14.32
2023-04-18T18:04:34.628Z,14.37
2023-04-18T18:07:38.356Z,14.46
2023-04-18T18:10:49.814Z,14.09
2023-04-18T18:13:54.625Z,14.08
2023-04-18T18:16:57.343Z,14.15
2023-04-18T18:19:59.968Z,14.26
2023-04-18T18:23:02.862Z,14.19
2023-04-18T18:26:06.602Z,14.18
2023-04-18T18:29:09.505Z,13.97
2023-04-18T18:32:12.109Z,14.01
2023-04-18T18:35:15.004Z,14.15
2023-04-18T18:38:17.804Z,13.69
2023-04-18T18:41:23.945Z,14.12
2023-04-18T18:44:26.716Z,14.09
2023-04-18T18:47:30.592Z,13.98
2023-04-18T18:50:33.945Z,13.94
2023-04-18T18:53:38.406Z,13.89
2023-04-18T18:56:44.187Z,14.03
2023-04-18T18:59:50.010Z,13.89
2023-04-18T19:02:53.119Z,13.89
2023-04-18T19:05:56.515Z,13.92
2023-04-18T19:08:59.446Z,13.97
2023-04-18T19:12:04.138Z,13.75
2023-04-18T19:15:07.156Z,13.97
2023-04-18T19:18:09.993Z,13.86
2023-04-18T19:21:15.959Z,13.80
2023-04-18T19:24:18.852Z,13.75
2023-04-18T19:27:21.351Z,13.42
2023-04-18T19:30:24.991Z,13.64
2023-04-18T19:33:27.963Z,13.54
2023-04-18T19:36:32.095Z,13.47
2023-04-18T19:39:34.807Z,13.17
2023-04-18T19:42:37.842Z,13.08
2023-04-18T19:45:40.671Z,13.17
2023-04-18T19:48:43.508Z,12.92
2023-04-18T19:51:46.213Z,12.93
2023-04-18T19:54:48.864Z,12.82
2023-04-18T19:57:55.725Z,12.80
2023-04-18T20:00:58.881Z,12.75
2023-04-18T20:04:02.167Z,12.63
2023-04-18T20:07:05.133Z,12.73
2023-04-18T20:10:09.094Z,12.48
2023-04-18T20:13:11.827Z,12.60
2023-04-18T20:16:16.458Z,12.06
2023-04-18T20:19:19.526Z,12.25
2023-04-18T20:22:22.195Z,12.48
2023-04-18T20:25:24.884Z,12.39
2023-04-18T20:28:27.439Z,12.22
2023-04-18T20:31:30.213Z,12.17
2023-04-18T20:34:33.327Z,12.29
2023-04-18T20:37:36.738Z,12.25
2023-04-18T20:40:39.857Z,12.07
2023-04-18T20:43:43.497Z,12.13
2023-04-18T20:46:46.390Z,12.05
2023-04-18T20:49:49.026Z,12.09
2023-04-18T20:52:52.263Z,12.17
2023-04-18T20:55:54.726Z,12.04
2023-04-18T20:58:57.273Z,12.21
2023-04-18T21:01:59.869Z,12.05
2023-04-18T21:05:02.810Z,11.88
2023-04-18T21:08:05.538Z,12.24
2023-04-18T21:11:08.082Z,12.07
2023-04-18T21:14:10.862Z,11.83
2023-04-18T21:17:17.357Z,12.01
2023-04-18T21:20:20.189Z,12.08
2023-04-18T21:23:23.662Z,12.12
2023-04-18T21:26:26.084Z,12.17
2023-04-18T21:29:28.403Z,12.13
2023-04-18T21:32:30.801Z,12.11
2023-04-18T21:35:33.267Z,12.02
2023-04-18T21:38:35.689Z,12.20
2023-04-18T21:41:38.448Z,12.03
2023-04-18T21:44:40.833Z,12.18
2023-04-18T21:47:44.030Z,12.03
2023-04-18T21:50:46.476Z,12.10
2023-04-18T21:53:48.908Z,12.12
2023-04-18T21:56:51.277Z,12.27
2023-04-18T21:59:59.908Z,12.22
2023-04-18T22:03:02.469Z,12.05
2023-04-18T22:06:05.071Z,12.14
2023-04-18T22:09:08.482Z,12.23
2023-04-18T22:12:14.014Z,12.09
2023-04-18T22:15:18.169Z,12.13
2023-04-18T22:18:21.903Z,12.01
2023-04-18T22:21:24.374Z,12.07
2023-04-18T22:24:26.743Z,11.99
2023-04-18T22:27:29.126Z,12.01
2023-04-18T22:30:31.941Z,11.72
2023-04-18T22:33:34.423Z,11.79
2023-04-18T22:36:37.641Z,11.54
2023-04-18T22:39:40.005Z,11.64
2023-04-18T22:42:43.434Z,11.41
2023-04-18T22:45:46.096Z,11.30
2023-04-18T22:48:49.362Z,11.01
2023-04-18T22:51:54.475Z,11.19
2023-04-18T22:54:57.042Z,11.02
2023-04-18T22:57:59.426Z,10.85
2023-04-18T23:01:02.103Z,11.13
2023-04-18T23:04:05.090Z,10.88
2023-04-18T23:07:08.935Z,10.97
2023-04-18T23:10:11.606Z,10.91
2023-04-18T23:13:14.543Z,10.78
2023-04-18T23:16:17.255Z,10.97
2023-04-18T23:19:19.708Z,10.92
2023-04-18T23:22:24.123Z,10.94
2023-04-18T23:25:26.623Z,10.91
2023-04-18T23:28:29.090Z,10.74
2023-04-18T23:31:34.777Z,10.72
2023-04-18T23:34:37.568Z,10.79
2023-04-18T23:37:40.201Z,10.72
2023-04-18T23:40:42.750Z,10.79
2023-04-18T23:43:45.590Z,10.82
2023-04-18T23:46:48.459Z,10.64
2023-04-18T23:49:51.398Z,10.78
2023-04-18T23:52:54.029Z,10.60
2023-04-18T23:55:56.631Z,10.57
2023-04-18T23:58:59.016Z,10.70
